sensor_id;sensor_type;location;lat;lon;timestamp;P1;durP1;ratioP1;P2;durP2;ratioP2
18336;SDS011;9294;51.106;7.028;2023-11-19T00:02:19;1.65;;;1.58;;
18336;SDS011;9294;51.106;7.028;2023-11-19T00:04:46;1.30;;;1.30;;
18336;SDS011;9294;51.106;7.028;2023-11-19T00:07:14;1.58;;;1.58;;
18336;SDS011;9294;51.106;7.028;2023-11-19T00:09:41;1.45;;;1.42;;
18336;SDS011;9294;51.106;7.028;2023-11-19T00:12:08;1.45;;;1.42;;
18336;SDS011;9294;51.106;7.028;2023-11-19T00:14:35;1.75;;;1.35;;
18336;SDS011;9294;51.106;7.028;2023-11-19T00:17:02;1.38;;;1.27;;
18336;SDS011;9294;51.106;7.028;2023-11-19T00:19:29;1.35;;;1.25;;
18336;SDS011;9294;51.106;7.028;2023-11-19T00:21:56;1.20;;;1.20;;
18336;SDS011;9294;51.106;7.028;2023-11-19T00:24:28;1.23;;;1.23;;
18336;SDS011;9294;51.106;7.028;2023-11-19T00:26:55;1.20;;;1.20;;
18336;SDS011;9294;51.106;7.028;2023-11-19T00:29:22;1.30;;;1.30;;
18336;SDS011;9294;51.106;7.028;2023-11-19T00:31:49;1.00;;;1.00;;
18336;SDS011;9294;51.106;7.028;2023-11-19T00:34:16;1.23;;;1.17;;
18336;SDS011;9294;51.106;7.028;2023-11-19T00:36:46;1.63;;;1.52;;
18336;SDS011;9294;51.106;7.028;2023-11-19T00:39:13;1.10;;;1.10;;
18336;SDS011;9294;51.106;7.028;2023-11-19T00:41:42;1.27;;;1.27;;
18336;SDS011;9294;51.106;7.028;2023-11-19T00:44:08;1.15;;;1.10;;
18336;SDS011;9294;51.106;7.028;2023-11-19T00:46:35;1.05;;;1.05;;
18336;SDS011;9294;51.106;7.028;2023-11-19T00:49:02;0.98;;;0.98;;
18336;SDS011;9294;51.106;7.028;2023-11-19T00:51:29;1.05;;;1.05;;
18336;SDS011;9294;51.106;7.028;2023-11-19T00:53:57;1.00;;;1.00;;
18336;SDS011;9294;51.106;7.028;2023-11-19T00:56:24;1.30;;;1.25;;
18336;SDS011;9294;51.106;7.028;2023-11-19T00:58:52;1.38;;;1.27;;
18336;SDS011;9294;51.106;7.028;2023-11-19T01:01:18;0.70;;;0.70;;
18336;SDS011;9294;51.106;7.028;2023-11-19T01:03:45;1.38;;;1.27;;
18336;SDS011;9294;51.106;7.028;2023-11-19T01:06:12;0.88;;;0.88;;
18336;SDS011;9294;51.106;7.028;2023-11-19T01:08:42;1.00;;;1.00;;
18336;SDS011;9294;51.106;7.028;2023-11-19T01:11:09;1.08;;;1.05;;
18336;SDS011;9294;51.106;7.028;2023-11-19T01:13:45;0.95;;;0.95;;
18336;SDS011;9294;51.106;7.028;2023-11-19T01:16:13;0.90;;;0.90;;
18336;SDS011;9294;51.106;7.028;2023-11-19T01:18:40;0.90;;;0.90;;
18336;SDS011;9294;51.106;7.028;2023-11-19T01:21:07;1.00;;;1.00;;
18336;SDS011;9294;51.106;7.028;2023-11-19T01:23:34;1.02;;;0.85;;
18336;SDS011;9294;51.106;7.028;2023-11-19T01:26:02;0.98;;;0.98;;
18336;SDS011;9294;51.106;7.028;2023-11-19T01:28:30;0.98;;;0.82;;
18336;SDS011;9294;51.106;7.028;2023-11-19T01:30:57;0.90;;;0.90;;
18336;SDS011;9294;51.106;7.028;2023-11-19T01:33:25;0.80;;;0.80;;
18336;SDS011;9294;51.106;7.028;2023-11-19T01:35:52;0.82;;;0.82;;
18336;SDS011;9294;51.106;7.028;2023-11-19T01:38:19;0.82;;;0.82;;
18336;SDS011;9294;51.106;7.028;2023-11-19T01:40:46;0.70;;;0.70;;
18336;SDS011;9294;51.106;7.028;2023-11-19T01:45:58;0.70;;;0.70;;
18336;SDS011;9294;51.106;7.028;2023-11-19T01:48:26;0.70;;;0.70;;
18336;SDS011;9294;51.106;7.028;2023-11-19T01:50:53;1.30;;;1.00;;
18336;SDS011;9294;51.106;7.028;2023-11-19T01:53:20;0.98;;;0.98;;
18336;SDS011;9294;51.106;7.028;2023-11-19T01:55:47;0.65;;;0.65;;
18336;SDS011;9294;51.106;7.028;2023-11-19T01:58:14;0.90;;;0.90;;
18336;SDS011;9294;51.106;7.028;2023-11-19T02:00:43;0.90;;;0.90;;
18336;SDS011;9294;51.106;7.028;2023-11-19T02:03:11;0.70;;;0.70;;
18336;SDS011;9294;51.106;7.028;2023-11-19T02:05:39;0.90;;;0.90;;
18336;SDS011;9294;51.106;7.028;2023-11-19T02:08:07;0.70;;;0.70;;
18336;SDS011;9294;51.106;7.028;2023-11-19T02:10:33;1.08;;;0.98;;
18336;SDS011;9294;51.106;7.028;2023-11-19T02:13:01;0.70;;;0.70;;
18336;SDS011;9294;51.106;7.028;2023-11-19T02:15:28;1.10;;;1.10;;
18336;SDS011;9294;51.106;7.028;2023-11-19T02:17:55;0.60;;;0.60;;
18336;SDS011;9294;51.106;7.028;2023-11-19T02:20:22;0.52;;;0.52;;
18336;SDS011;9294;51.106;7.028;2023-11-19T02:22:51;0.80;;;0.80;;
18336;SDS011;9294;51.106;7.028;2023-11-19T02:25:19;0.80;;;0.80;;
18336;SDS011;9294;51.106;7.028;2023-11-19T02:27:54;0.98;;;0.98;;
18336;SDS011;9294;51.106;7.028;2023-11-19T02:30:24;1.00;;;1.00;;
18336;SDS011;9294;51.106;7.028;2023-11-19T02:32:53;0.80;;;0.80;;
18336;SDS011;9294;51.106;7.028;2023-11-19T02:35:22;0.80;;;0.80;;
18336;SDS011;9294;51.106;7.028;2023-11-19T02:37:48;0.73;;;0.73;;
18336;SDS011;9294;51.106;7.028;2023-11-19T02:40:15;0.73;;;0.73;;
18336;SDS011;9294;51.106;7.028;2023-11-19T02:42:42;0.90;;;0.90;;
18336;SDS011;9294;51.106;7.028;2023-11-19T02:45:10;0.80;;;0.80;;
18336;SDS011;9294;51.106;7.028;2023-11-19T02:47:39;0.77;;;0.77;;
18336;SDS011;9294;51.106;7.028;2023-11-19T02:50:07;0.85;;;0.85;;
18336;SDS011;9294;51.106;7.028;2023-11-19T02:52:39;1.10;;;1.10;;
18336;SDS011;9294;51.106;7.028;2023-11-19T02:55:06;1.38;;;0.90;;
18336;SDS011;9294;51.106;7.028;2023-11-19T02:57:35;0.90;;;0.90;;
18336;SDS011;9294;51.106;7.028;2023-11-19T03:00:02;0.80;;;0.80;;
18336;SDS011;9294;51.106;7.028;2023-11-19T03:02:38;0.80;;;0.80;;
18336;SDS011;9294;51.106;7.028;2023-11-19T03:05:09;0.80;;;0.80;;
18336;SDS011;9294;51.106;7.028;2023-11-19T03:07:36;0.80;;;0.80;;
18336;SDS011;9294;51.106;7.028;2023-11-19T03:10:03;0.80;;;0.80;;
18336;SDS011;9294;51.106;7.028;2023-11-19T03:12:31;0.55;;;0.55;;
18336;SDS011;9294;51.106;7.028;2023-11-19T03:14:58;0.80;;;0.80;;
18336;SDS011;9294;51.106;7.028;2023-11-19T03:17:25;0.80;;;0.80;;
18336;SDS011;9294;51.106;7.028;2023-11-19T03:19:53;1.42;;;1.35;;
18336;SDS011;9294;51.106;7.028;2023-11-19T03:22:19;0.68;;;0.68;;
18336;SDS011;9294;51.106;7.028;2023-11-19T03:24:46;0.68;;;0.68;;
18336;SDS011;9294;51.106;7.028;2023-11-19T03:27:13;0.90;;;0.90;;
18336;SDS011;9294;51.106;7.028;2023-11-19T03:29:40;0.75;;;0.75;;
18336;SDS011;9294;51.106;7.028;2023-11-19T03:32:06;0.77;;;0.77;;
18336;SDS011;9294;51.106;7.028;2023-11-19T03:34:33;0.60;;;0.60;;
18336;SDS011;9294;51.106;7.028;2023-11-19T03:37:01;0.80;;;0.80;;
18336;SDS011;9294;51.106;7.028;2023-11-19T03:39:28;0.70;;;0.70;;
18336;SDS011;9294;51.106;7.028;2023-11-19T03:41:55;0.70;;;0.70;;
18336;SDS011;9294;51.106;7.028;2023-11-19T03:44:22;0.80;;;0.80;;
18336;SDS011;9294;51.106;7.028;2023-11-19T03:46:51;0.70;;;0.70;;
18336;SDS011;9294;51.106;7.028;2023-11-19T03:49:18;0.85;;;0.85;;
18336;SDS011;9294;51.106;7.028;2023-11-19T03:51:44;0.70;;;0.70;;
18336;SDS011;9294;51.106;7.028;2023-11-19T03:54:13;0.73;;;0.73;;
18336;SDS011;9294;51.106;7.028;2023-11-19T03:56:40;0.80;;;0.80;;
18336;SDS011;9294;51.106;7.028;2023-11-19T03:59:07;0.90;;;0.90;;
18336;SDS011;9294;51.106;7.028;2023-11-19T04:01:34;0.52;;;0.52;;
18336;SDS011;9294;51.106;7.028;2023-11-19T04:04:02;0.82;;;0.82;;
18336;SDS011;9294;51.106;7.028;2023-11-19T04:06:29;0.98;;;0.98;;
18336;SDS011;9294;51.106;7.028;2023-11-19T04:08:56;0.70;;;0.70;;
18336;SDS011;9294;51.106;7.028;2023-11-19T04:11:24;0.60;;;0.60;;
18336;SDS011;9294;51.106;7.028;2023-11-19T04:13:51;1.00;;;1.00;;
18336;SDS011;9294;51.106;7.028;2023-11-19T04:16:18;0.95;;;0.95;;
18336;SDS011;9294;51.106;7.028;2023-11-19T04:18:44;1.20;;;1.10;;
18336;SDS011;9294;51.106;7.028;2023-11-19T04:21:11;0.88;;;0.80;;
18336;SDS011;9294;51.106;7.028;2023-11-19T04:23:38;0.80;;;0.80;;
18336;SDS011;9294;51.106;7.028;2023-11-19T04:26:04;0.80;;;0.80;;
18336;SDS011;9294;51.106;7.028;2023-11-19T04:28:33;0.93;;;0.93;;
18336;SDS011;9294;51.106;7.028;2023-11-19T04:30:59;0.70;;;0.70;;
18336;SDS011;9294;51.106;7.028;2023-11-19T04:33:28;1.52;;;0.93;;
18336;SDS011;9294;51.106;7.028;2023-11-19T04:35:55;0.93;;;0.93;;
18336;SDS011;9294;51.106;7.028;2023-11-19T04:38:21;0.80;;;0.68;;
18336;SDS011;9294;51.106;7.028;2023-11-19T04:40:48;0.70;;;0.70;;
18336;SDS011;9294;51.106;7.028;2023-11-19T04:43:15;0.70;;;0.70;;
18336;SDS011;9294;51.106;7.028;2023-11-19T04:45:43;0.80;;;0.80;;
18336;SDS011;9294;51.106;7.028;2023-11-19T04:48:09;1.50;;;1.20;;
18336;SDS011;9294;51.106;7.028;2023-11-19T04:50:37;0.60;;;0.60;;
18336;SDS011;9294;51.106;7.028;2023-11-19T04:53:04;1.08;;;0.70;;
18336;SDS011;9294;51.106;7.028;2023-11-19T04:55:31;0.75;;;0.75;;
18336;SDS011;9294;51.106;7.028;2023-11-19T04:57:57;1.17;;;1.08;;
18336;SDS011;9294;51.106;7.028;2023-11-19T05:00:24;1.13;;;1.02;;
18336;SDS011;9294;51.106;7.028;2023-11-19T05:02:52;1.55;;;1.15;;
18336;SDS011;9294;51.106;7.028;2023-11-19T05:05:19;0.80;;;0.80;;
18336;SDS011;9294;51.106;7.028;2023-11-19T05:07:45;2.20;;;0.88;;
18336;SDS011;9294;51.106;7.028;2023-11-19T05:10:12;0.85;;;0.85;;
18336;SDS011;9294;51.106;7.028;2023-11-19T05:12:39;0.90;;;0.90;;
18336;SDS011;9294;51.106;7.028;2023-11-19T05:15:06;0.95;;;0.95;;
18336;SDS011;9294;51.106;7.028;2023-11-19T05:17:33;0.80;;;0.80;;
18336;SDS011;9294;51.106;7.028;2023-11-19T05:20:04;2.85;;;0.88;;
18336;SDS011;9294;51.106;7.028;2023-11-19T05:22:38;0.90;;;0.90;;
18336;SDS011;9294;51.106;7.028;2023-11-19T05:25:05;1.05;;;1.00;;
18336;SDS011;9294;51.106;7.028;2023-11-19T05:27:33;1.10;;;1.02;;
18336;SDS011;9294;51.106;7.028;2023-11-19T05:30:00;0.80;;;0.80;;
18336;SDS011;9294;51.106;7.028;2023-11-19T05:32:26;0.73;;;0.73;;
18336;SDS011;9294;51.106;7.028;2023-11-19T05:34:53;0.80;;;0.80;;
18336;SDS011;9294;51.106;7.028;2023-11-19T05:37:21;1.45;;;1.13;;
18336;SDS011;9294;51.106;7.028;2023-11-19T05:39:48;1.10;;;1.00;;
18336;SDS011;9294;51.106;7.028;2023-11-19T05:42:14;0.95;;;0.93;;
18336;SDS011;9294;51.106;7.028;2023-11-19T05:44:41;0.98;;;0.98;;
18336;SDS011;9294;51.106;7.028;2023-11-19T05:47:08;1.05;;;1.00;;
18336;SDS011;9294;51.106;7.028;2023-11-19T05:49:34;5.57;;;1.40;;
18336;SDS011;9294;51.106;7.028;2023-11-19T05:52:01;0.95;;;0.95;;
18336;SDS011;9294;51.106;7.028;2023-11-19T05:54:33;0.98;;;0.95;;
18336;SDS011;9294;51.106;7.028;2023-11-19T05:57:02;1.50;;;1.40;;
18336;SDS011;9294;51.106;7.028;2023-11-19T05:59:29;1.05;;;0.90;;
18336;SDS011;9294;51.106;7.028;2023-11-19T06:01:58;0.93;;;0.93;;
18336;SDS011;9294;51.106;7.028;2023-11-19T06:04:25;1.20;;;1.08;;
18336;SDS011;9294;51.106;7.028;2023-11-19T06:06:51;1.30;;;1.20;;
18336;SDS011;9294;51.106;7.028;2023-11-19T06:09:19;1.27;;;1.20;;
18336;SDS011;9294;51.106;7.028;2023-11-19T06:11:49;0.95;;;0.95;;
18336;SDS011;9294;51.106;7.028;2023-11-19T06:14:17;1.10;;;1.00;;
18336;SDS011;9294;51.106;7.028;2023-11-19T06:16:44;1.35;;;1.20;;
18336;SDS011;9294;51.106;7.028;2023-11-19T06:19:10;1.00;;;1.00;;
18336;SDS011;9294;51.106;7.028;2023-11-19T06:21:38;0.82;;;0.80;;
18336;SDS011;9294;51.106;7.028;2023-11-19T06:24:04;1.25;;;1.10;;
18336;SDS011;9294;51.106;7.028;2023-11-19T06:26:31;1.02;;;1.02;;
18336;SDS011;9294;51.106;7.028;2023-11-19T06:28:59;0.82;;;0.77;;
18336;SDS011;9294;51.106;7.028;2023-11-19T06:31:26;1.73;;;0.93;;
18336;SDS011;9294;51.106;7.028;2023-11-19T06:33:53;2.47;;;1.48;;
18336;SDS011;9294;51.106;7.028;2023-11-19T06:36:20;1.23;;;1.02;;
18336;SDS011;9294;51.106;7.028;2023-11-19T06:38:46;2.05;;;1.13;;
18336;SDS011;9294;51.106;7.028;2023-11-19T06:41:13;1.23;;;0.90;;
18336;SDS011;9294;51.106;7.028;2023-11-19T06:43:40;1.40;;;1.30;;
18336;SDS011;9294;51.106;7.028;2023-11-19T06:46:15;2.15;;;1.42;;
18336;SDS011;9294;51.106;7.028;2023-11-19T06:48:42;0.93;;;0.93;;
18336;SDS011;9294;51.106;7.028;2023-11-19T06:51:09;3.60;;;1.80;;
18336;SDS011;9294;51.106;7.028;2023-11-19T06:53:36;1.40;;;1.30;;
18336;SDS011;9294;51.106;7.028;2023-11-19T06:56:02;1.92;;;1.33;;
18336;SDS011;9294;51.106;7.028;2023-11-19T06:58:31;3.45;;;1.27;;
18336;SDS011;9294;51.106;7.028;2023-11-19T07:00:57;1.77;;;1.27;;
18336;SDS011;9294;51.106;7.028;2023-11-19T07:03:25;2.78;;;1.27;;
18336;SDS011;9294;51.106;7.028;2023-11-19T07:05:51;2.35;;;1.67;;
18336;SDS011;9294;51.106;7.028;2023-11-19T07:08:19;2.72;;;1.30;;
18336;SDS011;9294;51.106;7.028;2023-11-19T07:10:46;2.38;;;1.33;;
18336;SDS011;9294;51.106;7.028;2023-11-19T07:13:13;2.60;;;1.30;;
18336;SDS011;9294;51.106;7.028;2023-11-19T07:15:40;1.27;;;1.17;;
18336;SDS011;9294;51.106;7.028;2023-11-19T07:18:06;1.27;;;1.10;;
18336;SDS011;9294;51.106;7.028;2023-11-19T07:20:34;1.55;;;1.15;;
18336;SDS011;9294;51.106;7.028;2023-11-19T07:23:02;3.72;;;1.38;;
18336;SDS011;9294;51.106;7.028;2023-11-19T07:25:29;1.70;;;1.30;;
18336;SDS011;9294;51.106;7.028;2023-11-19T07:27:56;3.58;;;1.38;;
18336;SDS011;9294;51.106;7.028;2023-11-19T07:30:23;2.83;;;1.45;;
18336;SDS011;9294;51.106;7.028;2023-11-19T07:32:49;2.17;;;1.83;;
18336;SDS011;9294;51.106;7.028;2023-11-19T07:35:16;1.90;;;1.58;;
18336;SDS011;9294;51.106;7.028;2023-11-19T07:37:45;1.25;;;1.15;;
18336;SDS011;9294;51.106;7.028;2023-11-19T07:40:12;5.15;;;1.60;;
18336;SDS011;9294;51.106;7.028;2023-11-19T07:42:39;3.25;;;1.75;;
18336;SDS011;9294;51.106;7.028;2023-11-19T07:45:06;4.07;;;1.75;;
18336;SDS011;9294;51.106;7.028;2023-11-19T07:47:33;3.53;;;1.77;;
18336;SDS011;9294;51.106;7.028;2023-11-19T07:50:00;18.52;;;2.35;;
18336;SDS011;9294;51.106;7.028;2023-11-19T07:52:27;2.38;;;1.58;;
18336;SDS011;9294;51.106;7.028;2023-11-19T07:54:55;3.80;;;1.85;;
18336;SDS011;9294;51.106;7.028;2023-11-19T07:57:22;9.73;;;1.67;;
18336;SDS011;9294;51.106;7.028;2023-11-19T07:59:49;2.65;;;1.65;;
18336;SDS011;9294;51.106;7.028;2023-11-19T08:02:16;5.75;;;1.55;;
18336;SDS011;9294;51.106;7.028;2023-11-19T08:04:43;4.60;;;1.80;;
18336;SDS011;9294;51.106;7.028;2023-11-19T08:07:11;1.70;;;1.58;;
18336;SDS011;9294;51.106;7.028;2023-11-19T08:09:37;3.05;;;1.70;;
18336;SDS011;9294;51.106;7.028;2023-11-19T08:12:06;3.58;;;1.63;;
18336;SDS011;9294;51.106;7.028;2023-11-19T08:14:33;6.22;;;1.83;;
18336;SDS011;9294;51.106;7.028;2023-11-19T08:17:02;4.65;;;2.05;;
18336;SDS011;9294;51.106;7.028;2023-11-19T08:19:29;4.07;;;1.85;;
18336;SDS011;9294;51.106;7.028;2023-11-19T08:21:56;5.55;;;1.98;;
18336;SDS011;9294;51.106;7.028;2023-11-19T08:24:22;4.60;;;2.33;;
18336;SDS011;9294;51.106;7.028;2023-11-19T08:26:49;4.03;;;2.15;;
18336;SDS011;9294;51.106;7.028;2023-11-19T08:29:17;3.67;;;1.73;;
18336;SDS011;9294;51.106;7.028;2023-11-19T08:31:44;5.05;;;2.00;;
18336;SDS011;9294;51.106;7.028;2023-11-19T08:34:10;3.55;;;1.85;;
18336;SDS011;9294;51.106;7.028;2023-11-19T08:36:37;7.55;;;2.00;;
18336;SDS011;9294;51.106;7.028;2023-11-19T08:39:04;3.67;;;1.52;;
18336;SDS011;9294;51.106;7.028;2023-11-19T08:41:31;7.70;;;2.53;;
18336;SDS011;9294;51.106;7.028;2023-11-19T08:43:58;7.18;;;2.25;;
18336;SDS011;9294;51.106;7.028;2023-11-19T08:46:26;9.13;;;2.90;;
18336;SDS011;9294;51.106;7.028;2023-11-19T08:48:53;5.60;;;2.65;;
18336;SDS011;9294;51.106;7.028;2023-11-19T08:51:22;5.70;;;2.15;;
18336;SDS011;9294;51.106;7.028;2023-11-19T08:53:49;5.35;;;2.88;;
18336;SDS011;9294;51.106;7.028;2023-11-19T08:56:16;5.28;;;2.25;;
18336;SDS011;9294;51.106;7.028;2023-11-19T08:58:43;7.60;;;2.38;;
18336;SDS011;9294;51.106;7.028;2023-11-19T09:01:09;5.05;;;2.38;;
18336;SDS011;9294;51.106;7.028;2023-11-19T09:03:37;6.80;;;2.63;;
18336;SDS011;9294;51.106;7.028;2023-11-19T09:06:04;8.65;;;2.78;;
18336;SDS011;9294;51.106;7.028;2023-11-19T09:08:31;7.60;;;2.70;;
18336;SDS011;9294;51.106;7.028;2023-11-19T09:10:58;10.00;;;2.72;;
18336;SDS011;9294;51.106;7.028;2023-11-19T09:13:25;7.22;;;2.65;;
18336;SDS011;9294;51.106;7.028;2023-11-19T09:15:51;8.73;;;2.15;;
18336;SDS011;9294;51.106;7.028;2023-11-19T09:18:18;10.80;;;2.80;;
18336;SDS011;9294;51.106;7.028;2023-11-19T09:20:46;6.38;;;2.60;;
18336;SDS011;9294;51.106;7.028;2023-11-19T09:23:13;6.40;;;2.47;;
18336;SDS011;9294;51.106;7.028;2023-11-19T09:25:40;4.78;;;2.40;;
18336;SDS011;9294;51.106;7.028;2023-11-19T09:28:06;8.10;;;2.72;;
18336;SDS011;9294;51.106;7.028;2023-11-19T09:30:34;16.80;;;3.47;;
18336;SDS011;9294;51.106;7.028;2023-11-19T09:33:01;8.13;;;3.40;;
18336;SDS011;9294;51.106;7.028;2023-11-19T09:35:27;11.27;;;2.60;;
18336;SDS011;9294;51.106;7.028;2023-11-19T09:37:55;8.90;;;3.05;;
18336;SDS011;9294;51.106;7.028;2023-11-19T09:40:22;6.82;;;2.70;;
18336;SDS011;9294;51.106;7.028;2023-11-19T09:42:49;9.43;;;2.78;;
18336;SDS011;9294;51.106;7.028;2023-11-19T09:45:17;6.90;;;2.47;;
18336;SDS011;9294;51.106;7.028;2023-11-19T09:47:47;5.53;;;2.60;;
18336;SDS011;9294;51.106;7.028;2023-11-19T09:50:18;6.30;;;2.60;;
18336;SDS011;9294;51.106;7.028;2023-11-19T09:52:45;9.10;;;3.58;;
18336;SDS011;9294;51.106;7.028;2023-11-19T09:55:14;7.28;;;2.83;;
18336;SDS011;9294;51.106;7.028;2023-11-19T09:57:41;8.25;;;2.88;;
18336;SDS011;9294;51.106;7.028;2023-11-19T10:00:09;11.40;;;3.60;;
18336;SDS011;9294;51.106;7.028;2023-11-19T10:02:38;8.57;;;3.25;;
18336;SDS011;9294;51.106;7.028;2023-11-19T10:05:06;8.18;;;2.90;;
18336;SDS011;9294;51.106;7.028;2023-11-19T10:07:33;6.07;;;3.30;;
18336;SDS011;9294;51.106;7.028;2023-11-19T10:10:00;6.70;;;3.40;;
18336;SDS011;9294;51.106;7.028;2023-11-19T10:12:30;14.45;;;3.50;;
18336;SDS011;9294;51.106;7.028;2023-11-19T10:14:57;10.05;;;2.92;;
18336;SDS011;9294;51.106;7.028;2023-11-19T10:17:27;7.78;;;3.65;;
18336;SDS011;9294;51.106;7.028;2023-11-19T10:19:55;7.78;;;3.38;;
18336;SDS011;9294;51.106;7.028;2023-11-19T10:22:22;8.40;;;2.92;;
18336;SDS011;9294;51.106;7.028;2023-11-19T10:24:49;6.22;;;2.90;;
18336;SDS011;9294;51.106;7.028;2023-11-19T10:27:16;7.90;;;3.15;;
18336;SDS011;9294;51.106;7.028;2023-11-19T10:29:45;6.70;;;3.88;;
18336;SDS011;9294;51.106;7.028;2023-11-19T10:32:13;9.63;;;3.83;;
18336;SDS011;9294;51.106;7.028;2023-11-19T10:34:39;9.60;;;4.45;;
18336;SDS011;9294;51.106;7.028;2023-11-19T10:37:08;7.55;;;4.65;;
18336;SDS011;9294;51.106;7.028;2023-11-19T10:42:20;9.07;;;4.72;;
18336;SDS011;9294;51.106;7.028;2023-11-19T10:44:48;9.15;;;5.80;;
18336;SDS011;9294;51.106;7.028;2023-11-19T10:47:15;13.90;;;6.47;;
18336;SDS011;9294;51.106;7.028;2023-11-19T10:49:45;12.35;;;6.30;;
18336;SDS011;9294;51.106;7.028;2023-11-19T10:52:12;12.93;;;6.63;;
18336;SDS011;9294;51.106;7.028;2023-11-19T10:54:44;10.80;;;6.72;;
18336;SDS011;9294;51.106;7.028;2023-11-19T10:57:14;17.33;;;7.97;;
18336;SDS011;9294;51.106;7.028;2023-11-19T10:59:45;14.48;;;8.15;;
18336;SDS011;9294;51.106;7.028;2023-11-19T11:02:14;14.73;;;8.00;;
18336;SDS011;9294;51.106;7.028;2023-11-19T11:04:44;19.98;;;9.77;;
18336;SDS011;9294;51.106;7.028;2023-11-19T11:07:13;21.05;;;9.18;;
18336;SDS011;9294;51.106;7.028;2023-11-19T11:09:41;18.15;;;8.85;;
18336;SDS011;9294;51.106;7.028;2023-11-19T11:12:08;15.52;;;7.88;;
18336;SDS011;9294;51.106;7.028;2023-11-19T11:14:36;14.18;;;8.77;;
18336;SDS011;9294;51.106;7.028;2023-11-19T11:17:05;14.57;;;8.52;;
18336;SDS011;9294;51.106;7.028;2023-11-19T11:19:35;17.27;;;7.75;;
18336;SDS011;9294;51.106;7.028;2023-11-19T11:22:10;16.20;;;8.65;;
18336;SDS011;9294;51.106;7.028;2023-11-19T11:24:48;14.65;;;7.50;;
18336;SDS011;9294;51.106;7.028;2023-11-19T11:27:43;16.52;;;7.18;;
18336;SDS011;9294;51.106;7.028;2023-11-19T11:30:35;13.30;;;7.13;;
18336;SDS011;9294;51.106;7.028;2023-11-19T11:33:19;13.27;;;6.90;;
18336;SDS011;9294;51.106;7.028;2023-11-19T11:35:55;14.40;;;6.80;;
18336;SDS011;9294;51.106;7.028;2023-11-19T11:38:33;11.75;;;6.60;;
18336;SDS011;9294;51.106;7.028;2023-11-19T11:41:15;13.32;;;6.45;;
18336;SDS011;9294;51.106;7.028;2023-11-19T11:43:45;13.15;;;7.30;;
18336;SDS011;9294;51.106;7.028;2023-11-19T11:49:17;11.57;;;6.35;;
18336;SDS011;9294;51.106;7.028;2023-11-19T11:51:58;8.45;;;5.38;;
18336;SDS011;9294;51.106;7.028;2023-11-19T11:54:28;11.25;;;5.53;;
18336;SDS011;9294;51.106;7.028;2023-11-19T11:57:08;14.10;;;6.93;;
18336;SDS011;9294;51.106;7.028;2023-11-19T11:59:46;10.88;;;6.03;;
18336;SDS011;9294;51.106;7.028;2023-11-19T12:02:14;8.98;;;5.18;;
18336;SDS011;9294;51.106;7.028;2023-11-19T12:04:42;8.65;;;5.85;;
18336;SDS011;9294;51.106;7.028;2023-11-19T12:07:12;10.63;;;6.03;;
18336;SDS011;9294;51.106;7.028;2023-11-19T12:09:41;11.52;;;6.32;;
18336;SDS011;9294;51.106;7.028;2023-11-19T12:12:18;9.05;;;5.25;;
18336;SDS011;9294;51.106;7.028;2023-11-19T12:15:03;12.32;;;5.93;;
18336;SDS011;9294;51.106;7.028;2023-11-19T12:17:41;10.05;;;5.65;;
18336;SDS011;9294;51.106;7.028;2023-11-19T12:20:14;13.32;;;5.78;;
18336;SDS011;9294;51.106;7.028;2023-11-19T12:22:42;9.63;;;5.05;;
18336;SDS011;9294;51.106;7.028;2023-11-19T12:25:11;17.38;;;6.60;;
18336;SDS011;9294;51.106;7.028;2023-11-19T12:27:39;15.73;;;5.53;;
18336;SDS011;9294;51.106;7.028;2023-11-19T12:30:07;14.38;;;6.15;;
18336;SDS011;9294;51.106;7.028;2023-11-19T12:32:38;17.77;;;6.20;;
18336;SDS011;9294;51.106;7.028;2023-11-19T12:35:06;16.08;;;5.65;;
18336;SDS011;9294;51.106;7.028;2023-11-19T12:37:38;15.15;;;5.22;;
18336;SDS011;9294;51.106;7.028;2023-11-19T12:40:11;13.55;;;6.18;;
18336;SDS011;9294;51.106;7.028;2023-11-19T12:42:42;14.63;;;5.82;;
18336;SDS011;9294;51.106;7.028;2023-11-19T12:45:09;33.08;;;6.35;;
18336;SDS011;9294;51.106;7.028;2023-11-19T12:47:37;13.23;;;5.00;;
18336;SDS011;9294;51.106;7.028;2023-11-19T12:50:04;12.52;;;5.10;;
18336;SDS011;9294;51.106;7.028;2023-11-19T12:52:31;15.75;;;5.50;;
18336;SDS011;9294;51.106;7.028;2023-11-19T12:54:58;11.50;;;5.15;;
18336;SDS011;9294;51.106;7.028;2023-11-19T12:57:36;14.20;;;4.57;;
18336;SDS011;9294;51.106;7.028;2023-11-19T13:00:05;14.88;;;5.22;;
18336;SDS011;9294;51.106;7.028;2023-11-19T13:02:44;15.45;;;5.32;;
18336;SDS011;9294;51.106;7.028;2023-11-19T13:05:22;13.73;;;4.93;;
18336;SDS011;9294;51.106;7.028;2023-11-19T13:07:51;15.65;;;5.35;;
18336;SDS011;9294;51.106;7.028;2023-11-19T13:10:18;15.27;;;5.03;;
18336;SDS011;9294;51.106;7.028;2023-11-19T13:15:28;16.25;;;6.13;;
18336;SDS011;9294;51.106;7.028;2023-11-19T13:17:55;12.57;;;5.38;;
18336;SDS011;9294;51.106;7.028;2023-11-19T13:20:22;11.23;;;4.80;;
18336;SDS011;9294;51.106;7.028;2023-11-19T13:22:55;12.60;;;4.60;;
18336;SDS011;9294;51.106;7.028;2023-11-19T13:25:22;9.20;;;4.43;;
18336;SDS011;9294;51.106;7.028;2023-11-19T13:27:49;17.63;;;6.03;;
18336;SDS011;9294;51.106;7.028;2023-11-19T13:30:17;16.77;;;5.97;;
18336;SDS011;9294;51.106;7.028;2023-11-19T13:32:44;13.65;;;5.45;;
18336;SDS011;9294;51.106;7.028;2023-11-19T13:35:11;10.18;;;4.60;;
18336;SDS011;9294;51.106;7.028;2023-11-19T13:37:38;7.53;;;4.68;;
18336;SDS011;9294;51.106;7.028;2023-11-19T13:40:05;12.93;;;4.97;;
18336;SDS011;9294;51.106;7.028;2023-11-19T13:42:34;14.10;;;5.00;;
18336;SDS011;9294;51.106;7.028;2023-11-19T13:45:02;11.45;;;5.15;;
18336;SDS011;9294;51.106;7.028;2023-11-19T13:47:30;11.32;;;4.50;;
18336;SDS011;9294;51.106;7.028;2023-11-19T13:49:57;13.75;;;5.25;;
18336;SDS011;9294;51.106;7.028;2023-11-19T13:52:24;11.55;;;4.80;;
18336;SDS011;9294;51.106;7.028;2023-11-19T13:54:50;13.32;;;5.13;;
18336;SDS011;9294;51.106;7.028;2023-11-19T13:57:17;10.00;;;5.03;;
18336;SDS011;9294;51.106;7.028;2023-11-19T13:59:44;10.40;;;4.53;;
18336;SDS011;9294;51.106;7.028;2023-11-19T14:02:10;15.32;;;4.93;;
18336;SDS011;9294;51.106;7.028;2023-11-19T14:04:38;11.48;;;4.85;;
18336;SDS011;9294;51.106;7.028;2023-11-19T14:07:06;14.93;;;5.47;;
18336;SDS011;9294;51.106;7.028;2023-11-19T14:09:33;13.02;;;4.43;;
18336;SDS011;9294;51.106;7.028;2023-11-19T14:11:59;8.68;;;4.22;;
18336;SDS011;9294;51.106;7.028;2023-11-19T14:14:26;9.18;;;4.35;;
18336;SDS011;9294;51.106;7.028;2023-11-19T14:16:53;8.30;;;4.40;;
18336;SDS011;9294;51.106;7.028;2023-11-19T14:19:20;15.30;;;5.00;;
18336;SDS011;9294;51.106;7.028;2023-11-19T14:21:48;15.35;;;4.97;;
18336;SDS011;9294;51.106;7.028;2023-11-19T14:24:14;17.30;;;4.63;;
18336;SDS011;9294;51.106;7.028;2023-11-19T14:26:41;9.52;;;4.55;;
18336;SDS011;9294;51.106;7.028;2023-11-19T14:29:08;16.27;;;5.57;;
18336;SDS011;9294;51.106;7.028;2023-11-19T14:31:34;16.80;;;4.75;;
18336;SDS011;9294;51.106;7.028;2023-11-19T14:34:01;13.40;;;4.82;;
18336;SDS011;9294;51.106;7.028;2023-11-19T14:36:28;12.30;;;4.43;;
18336;SDS011;9294;51.106;7.028;2023-11-19T14:38:56;8.73;;;4.00;;
18336;SDS011;9294;51.106;7.028;2023-11-19T14:41:23;10.98;;;3.85;;
18336;SDS011;9294;51.106;7.028;2023-11-19T14:43:50;11.32;;;4.28;;
18336;SDS011;9294;51.106;7.028;2023-11-19T14:46:17;11.93;;;4.15;;
18336;SDS011;9294;51.106;7.028;2023-11-19T14:48:44;12.02;;;4.07;;
18336;SDS011;9294;51.106;7.028;2023-11-19T14:51:10;11.32;;;4.65;;
18336;SDS011;9294;51.106;7.028;2023-11-19T14:53:37;12.48;;;4.18;;
18336;SDS011;9294;51.106;7.028;2023-11-19T14:56:09;7.70;;;3.60;;
18336;SDS011;9294;51.106;7.028;2023-11-19T14:58:37;14.45;;;3.40;;
18336;SDS011;9294;51.106;7.028;2023-11-19T15:01:04;13.98;;;4.65;;
18336;SDS011;9294;51.106;7.028;2023-11-19T15:03:32;9.60;;;3.85;;
18336;SDS011;9294;51.106;7.028;2023-11-19T15:05:59;11.73;;;4.15;;
18336;SDS011;9294;51.106;7.028;2023-11-19T15:08:25;8.05;;;4.07;;
18336;SDS011;9294;51.106;7.028;2023-11-19T15:10:52;15.82;;;4.28;;
18336;SDS011;9294;51.106;7.028;2023-11-19T15:13:20;10.30;;;4.15;;
18336;SDS011;9294;51.106;7.028;2023-11-19T15:15:47;12.07;;;3.80;;